sensor_id;sensor_type;location;lat;lon;timestamp;pressure;altitude;pressure_sealevel;temperature;humidity
57290;BME280;43523;53.022;-1.178;2023-10-09T00:00:53;101279.98;;;13.15;100.00
57290;BME280;43523;53.022;-1.178;2023-10-09T00:01:56;101279.79;;;13.41;100.00
57290;BME280;43523;53.022;-1.178;2023-10-09T00:02:59;101279.98;;;13.44;100.00
57290;BME280;43523;53.022;-1.178;2023-10-09T00:04:02;101286.06;;;13.20;100.00
57290;BME280;43523;53.022;-1.178;2023-10-09T00:05:04;101299.20;;;13.31;100.00
57290;BME280;43523;53.022;-1.178;2023-10-09T00:06:07;101303.19;;;12.85;100.00
57290;BME280;43523;53.022;-1.178;2023-10-09T00:07:09;101303.96;;;12.71;100.00
57290;BME280;43523;53.022;-1.178;2023-10-09T00:08:12;101297.69;;;13.03;100.00
57290;BME280;43523;53.022;-1.178;2023-10-09T00:09:15;101302.07;;;13.12;100.00
57290;BME280;43523;53.022;-1.178;2023-10-09T00:10:18;101305.40;;;13.37;100.00
57290;BME280;43523;53.022;-1.178;2023-10-09T00:11:20;101309.54;;;12.90;100.00
57290;BME280;43523;53.022;-1.178;2023-10-09T00:12:23;101306.33;;;12.78;100.00
57290;BME280;43523;53.022;-1.178;2023-10-09T00:13:26;101296.23;;;13.45;100.00
57290;BME280;43523;53.022;-1.178;2023-10-09T00:14:30;101291.04;;;13.61;100.00
57290;BME280;43523;53.022;-1.178;2023-10-09T00:15:33;101292.51;;;13.95;100.00
57290;BME280;43523;53.022;-1.178;2023-10-09T00:16:35;101292.98;;;13.01;100.00
57290;BME280;43523;53.022;-1.178;2023-10-09T00:17:37;101296.65;;;12.78;100.00
57290;BME280;43523;53.022;-1.178;2023-10-09T00:18:40;101295.32;;;13.02;100.00
57290;BME280;43523;53.022;-1.178;2023-10-09T00:19:44;101293.20;;;13.53;100.00
57290;BME280;43523;53.022;-1.178;2023-10-09T00:20:46;101291.22;;;12.85;100.00
57290;BME280;43523;53.022;-1.178;2023-10-09T00:21:49;101291.64;;;13.41;100.00
57290;BME280;43523;53.022;-1.178;2023-10-09T00:22:51;101306.39;;;13.23;100.00
57290;BME280;43523;53.022;-1.178;2023-10-09T00:23:54;101310.73;;;12.99;100.00
57290;BME280;43523;53.022;-1.178;2023-10-09T00:24:57;101315.41;;;13.06;100.00
57290;BME280;43523;53.022;-1.178;2023-10-09T00:26:00;101323.42;;;13.10;100.00
57290;BME280;43523;53.022;-1.178;2023-10-09T00:27:02;101325.87;;;12.30;100.00
57290;BME280;43523;53.022;-1.178;2023-10-09T00:28:04;101320.87;;;12.71;100.00
57290;BME280;43523;53.022;-1.178;2023-10-09T00:29:06;101320.22;;;12.89;100.00
57290;BME280;43523;53.022;-1.178;2023-10-09T00:30:11;101320.24;;;12.66;100.00
57290;BME280;43523;53.022;-1.178;2023-10-09T00:31:13;101315.41;;;12.62;100.00
57290;BME280;43523;53.022;-1.178;2023-10-09T00:32:16;101311.21;;;13.05;100.00
57290;BME280;43523;53.022;-1.178;2023-10-09T00:33:18;101311.44;;;12.87;100.00
57290;BME280;43523;53.022;-1.178;2023-10-09T00:34:22;101312.68;;;13.16;100.00
57290;BME280;43523;53.022;-1.178;2023-10-09T00:35:25;101319.43;;;12.75;100.00
57290;BME280;43523;53.022;-1.178;2023-10-09T00:36:28;101323.77;;;13.16;100.00
57290;BME280;43523;53.022;-1.178;2023-10-09T00:37:30;101321.70;;;13.27;100.00
57290;BME280;43523;53.022;-1.178;2023-10-09T00:38:33;101317.80;;;13.30;100.00
57290;BME280;43523;53.022;-1.178;2023-10-09T00:39:35;101317.03;;;13.20;100.00
57290;BME280;43523;53.022;-1.178;2023-10-09T00:40:37;101317.28;;;13.14;100.00
57290;BME280;43523;53.022;-1.178;2023-10-09T00:41:39;101318.81;;;13.40;100.00
57290;BME280;43523;53.022;-1.178;2023-10-09T00:42:41;101324.93;;;13.07;100.00
57290;BME280;43523;53.022;-1.178;2023-10-09T00:43:44;101325.46;;;13.24;100.00
57290;BME280;43523;53.022;-1.178;2023-10-09T00:44:46;101329.01;;;12.55;100.00
57290;BME280;43523;53.022;-1.178;2023-10-09T00:45:48;101325.86;;;13.00;100.00
57290;BME280;43523;53.022;-1.178;2023-10-09T00:46:50;101322.09;;;12.94;100.00
57290;BME280;43523;53.022;-1.178;2023-10-09T00:47:53;101315.85;;;12.88;100.00
57290;BME280;43523;53.022;-1.178;2023-10-09T00:48:57;101311.08;;;13.23;100.00
57290;BME280;43523;53.022;-1.178;2023-10-09T00:50:03;101311.62;;;13.27;100.00
57290;BME280;43523;53.022;-1.178;2023-10-09T00:51:05;101310.15;;;13.33;100.00
57290;BME280;43523;53.022;-1.178;2023-10-09T00:52:09;101307.69;;;13.27;100.00
57290;BME280;43523;53.022;-1.178;2023-10-09T00:53:11;101307.81;;;13.08;100.00
57290;BME280;43523;53.022;-1.178;2023-10-09T00:54:14;101312.32;;;13.44;100.00
57290;BME280;43523;53.022;-1.178;2023-10-09T00:55:18;101313.70;;;13.34;100.00
57290;BME280;43523;53.022;-1.178;2023-10-09T00:56:22;101310.34;;;13.08;100.00
57290;BME280;43523;53.022;-1.178;2023-10-09T00:57:26;101312.97;;;13.49;100.00
57290;BME280;43523;53.022;-1.178;2023-10-09T00:58:29;101315.68;;;13.71;100.00
57290;BME280;43523;53.022;-1.178;2023-10-09T00:59:33;101308.77;;;13.81;100.00
57290;BME280;43523;53.022;-1.178;2023-10-09T01:00:36;101309.29;;;13.87;100.00
57290;BME280;43523;53.022;-1.178;2023-10-09T01:01:38;101306.95;;;13.41;100.00
57290;BME280;43523;53.022;-1.178;2023-10-09T01:02:41;101304.15;;;13.50;100.00
57290;BME280;43523;53.022;-1.178;2023-10-09T01:03:45;101303.65;;;13.45;100.00
57290;BME280;43523;53.022;-1.178;2023-10-09T01:04:48;101302.52;;;13.02;100.00
57290;BME280;43523;53.022;-1.178;2023-10-09T01:06:18;101297.52;;;14.18;100.00
57290;BME280;43523;53.022;-1.178;2023-10-09T01:07:21;101298.43;;;13.82;100.00
57290;BME280;43523;53.022;-1.178;2023-10-09T01:08:26;101295.97;;;13.96;100.00
57290;BME280;43523;53.022;-1.178;2023-10-09T01:09:29;101301.35;;;13.02;100.00
57290;BME280;43523;53.022;-1.178;2023-10-09T01:10:45;101302.64;;;12.66;100.00
57290;BME280;43523;53.022;-1.178;2023-10-09T01:11:47;101298.44;;;12.52;100.00
57290;BME280;43523;53.022;-1.178;2023-10-09T01:12:50;101304.59;;;12.42;100.00
57290;BME280;43523;53.022;-1.178;2023-10-09T01:13:52;101308.35;;;12.20;100.00
57290;BME280;43523;53.022;-1.178;2023-10-09T01:14:54;101300.15;;;13.23;100.00
57290;BME280;43523;53.022;-1.178;2023-10-09T01:15:56;101297.36;;;13.01;100.00
57290;BME280;43523;53.022;-1.178;2023-10-09T01:16:59;101292.90;;;12.57;100.00
57290;BME280;43523;53.022;-1.178;2023-10-09T01:18:02;101295.41;;;12.38;100.00
57290;BME280;43523;53.022;-1.178;2023-10-09T01:19:05;101287.54;;;12.29;100.00
57290;BME280;43523;53.022;-1.178;2023-10-09T01:20:09;101292.54;;;12.39;100.00
57290;BME280;43523;53.022;-1.178;2023-10-09T01:21:11;101286.42;;;12.28;100.00
57290;BME280;43523;53.022;-1.178;2023-10-09T01:22:14;101284.16;;;11.82;100.00
57290;BME280;43523;53.022;-1.178;2023-10-09T01:23:16;101288.88;;;12.32;100.00
57290;BME280;43523;53.022;-1.178;2023-10-09T01:24:19;101284.07;;;11.95;100.00
57290;BME280;43523;53.022;-1.178;2023-10-09T01:25:22;101273.88;;;11.93;100.00
57290;BME280;43523;53.022;-1.178;2023-10-09T01:26:24;101276.96;;;11.93;100.00
57290;BME280;43523;53.022;-1.178;2023-10-09T01:27:26;101275.85;;;11.84;100.00
57290;BME280;43523;53.022;-1.178;2023-10-09T01:28:28;101269.52;;;12.16;100.00
57290;BME280;43523;53.022;-1.178;2023-10-09T01:29:32;101258.55;;;12.11;100.00
57290;BME280;43523;53.022;-1.178;2023-10-09T01:30:34;101262.75;;;11.88;100.00
57290;BME280;43523;53.022;-1.178;2023-10-09T01:31:36;101259.28;;;11.88;100.00
57290;BME280;43523;53.022;-1.178;2023-10-09T01:32:39;101266.88;;;12.02;100.00
57290;BME280;43523;53.022;-1.178;2023-10-09T01:33:41;101267.63;;;11.89;100.00
57290;BME280;43523;53.022;-1.178;2023-10-09T01:34:45;101265.45;;;11.97;100.00
57290;BME280;43523;53.022;-1.178;2023-10-09T01:35:48;101264.32;;;11.82;100.00
57290;BME280;43523;53.022;-1.178;2023-10-09T01:36:51;101257.93;;;11.85;100.00
57290;BME280;43523;53.022;-1.178;2023-10-09T01:37:54;101260.90;;;12.16;100.00
57290;BME280;43523;53.022;-1.178;2023-10-09T01:38:56;101253.24;;;11.83;100.00
57290;BME280;43523;53.022;-1.178;2023-10-09T01:39:59;101248.85;;;11.81;100.00
57290;BME280;43523;53.022;-1.178;2023-10-09T01:41:02;101252.79;;;11.67;100.00
57290;BME280;43523;53.022;-1.178;2023-10-09T01:42:05;101252.83;;;11.65;100.00
57290;BME280;43523;53.022;-1.178;2023-10-09T01:43:07;101251.48;;;11.82;100.00
57290;BME280;43523;53.022;-1.178;2023-10-09T01:44:09;101259.97;;;11.66;100.00
57290;BME280;43523;53.022;-1.178;2023-10-09T01:45:12;101254.53;;;11.46;100.00
57290;BME280;43523;53.022;-1.178;2023-10-09T01:46:14;101252.20;;;11.86;100.00
57290;BME280;43523;53.022;-1.178;2023-10-09T01:47:17;101255.71;;;11.66;100.00
57290;BME280;43523;53.022;-1.178;2023-10-09T01:48:19;101255.20;;;11.36;100.00
57290;BME280;43523;53.022;-1.178;2023-10-09T01:49:21;101260.73;;;11.71;100.00
57290;BME280;43523;53.022;-1.178;2023-10-09T01:50:24;101262.90;;;11.45;100.00
57290;BME280;43523;53.022;-1.178;2023-10-09T01:51:26;101260.17;;;11.65;100.00
57290;BME280;43523;53.022;-1.178;2023-10-09T01:52:28;101259.96;;;12.11;100.00
57290;BME280;43523;53.022;-1.178;2023-10-09T01:53:30;101256.40;;;12.02;100.00
57290;BME280;43523;53.022;-1.178;2023-10-09T01:54:33;101260.02;;;11.54;100.00
57290;BME280;43523;53.022;-1.178;2023-10-09T01:55:36;101264.27;;;11.95;100.00
57290;BME280;43523;53.022;-1.178;2023-10-09T01:56:39;101265.60;;;11.57;100.00
57290;BME280;43523;53.022;-1.178;2023-10-09T01:57:41;101263.83;;;12.05;100.00
57290;BME280;43523;53.022;-1.178;2023-10-09T01:58:48;101262.30;;;11.86;100.00
57290;BME280;43523;53.022;-1.178;2023-10-09T01:59:51;101258.79;;;11.61;100.00
57290;BME280;43523;53.022;-1.178;2023-10-09T02:00:54;101256.74;;;11.59;100.00
57290;BME280;43523;53.022;-1.178;2023-10-09T02:01:56;101253.29;;;11.54;100.00
57290;BME280;43523;53.022;-1.178;2023-10-09T02:02:58;101245.81;;;11.68;100.00
57290;BME280;43523;53.022;-1.178;2023-10-09T02:04:00;101247.20;;;11.55;100.00
57290;BME280;43523;53.022;-1.178;2023-10-09T02:05:04;101245.79;;;11.87;100.00
57290;BME280;43523;53.022;-1.178;2023-10-09T02:06:08;101251.10;;;11.87;100.00
57290;BME280;43523;53.022;-1.178;2023-10-09T02:07:10;101251.49;;;11.75;100.00
57290;BME280;43523;53.022;-1.178;2023-10-09T02:08:12;101245.09;;;11.99;100.00
57290;BME280;43523;53.022;-1.178;2023-10-09T02:09:14;101243.44;;;12.10;100.00
57290;BME280;43523;53.022;-1.178;2023-10-09T02:10:17;101238.02;;;11.74;100.00
57290;BME280;43523;53.022;-1.178;2023-10-09T02:11:20;101235.05;;;11.69;100.00
57290;BME280;43523;53.022;-1.178;2023-10-09T02:12:22;101235.61;;;11.97;100.00
57290;BME280;43523;53.022;-1.178;2023-10-09T02:13:25;101234.32;;;12.17;100.00
57290;BME280;43523;53.022;-1.178;2023-10-09T02:14:27;101229.29;;;12.53;100.00
57290;BME280;43523;53.022;-1.178;2023-10-09T02:15:32;101228.35;;;12.15;100.00
57290;BME280;43523;53.022;-1.178;2023-10-09T02:16:35;101225.70;;;11.85;100.00
57290;BME280;43523;53.022;-1.178;2023-10-09T02:17:37;101224.18;;;11.92;100.00
57290;BME280;43523;53.022;-1.178;2023-10-09T02:18:39;101222.08;;;11.98;100.00
57290;BME280;43523;53.022;-1.178;2023-10-09T02:19:41;101224.17;;;12.03;100.00
57290;BME280;43523;53.022;-1.178;2023-10-09T02:20:45;101221.90;;;11.78;100.00
57290;BME280;43523;53.022;-1.178;2023-10-09T02:21:47;101218.93;;;11.19;100.00
57290;BME280;43523;53.022;-1.178;2023-10-09T02:22:54;101215.23;;;11.11;100.00
57290;BME280;43523;53.022;-1.178;2023-10-09T02:23:57;101216.26;;;11.38;100.00
57290;BME280;43523;53.022;-1.178;2023-10-09T02:25:01;101214.22;;;11.31;100.00
57290;BME280;43523;53.022;-1.178;2023-10-09T02:26:03;101216.81;;;11.85;100.00
57290;BME280;43523;53.022;-1.178;2023-10-09T02:27:05;101213.86;;;11.39;100.00
57290;BME280;43523;53.022;-1.178;2023-10-09T02:28:07;101211.97;;;11.47;100.00
57290;BME280;43523;53.022;-1.178;2023-10-09T02:29:10;101211.93;;;11.55;100.00
57290;BME280;43523;53.022;-1.178;2023-10-09T02:30:12;101212.98;;;11.40;100.00
57290;BME280;43523;53.022;-1.178;2023-10-09T02:31:14;101213.53;;;11.77;100.00
57290;BME280;43523;53.022;-1.178;2023-10-09T02:32:17;101217.77;;;11.56;100.00
57290;BME280;43523;53.022;-1.178;2023-10-09T02:33:19;101219.50;;;11.95;100.00
57290;BME280;43523;53.022;-1.178;2023-10-09T02:34:22;101220.72;;;11.56;100.00
57290;BME280;43523;53.022;-1.178;2023-10-09T02:35:24;101223.17;;;11.83;100.00
57290;BME280;43523;53.022;-1.178;2023-10-09T02:36:26;101229.78;;;11.41;100.00
57290;BME280;43523;53.022;-1.178;2023-10-09T02:37:29;101233.96;;;11.30;100.00
57290;BME280;43523;53.022;-1.178;2023-10-09T02:38:32;101233.29;;;11.39;100.00
57290;BME280;43523;53.022;-1.178;2023-10-09T02:39:34;101233.86;;;11.50;100.00
57290;BME280;43523;53.022;-1.178;2023-10-09T02:40:37;101240.24;;;11.56;100.00
57290;BME280;43523;53.022;-1.178;2023-10-09T02:41:39;101242.36;;;11.86;100.00
57290;BME280;43523;53.022;-1.178;2023-10-09T02:42:41;101245.58;;;12.24;100.00
57290;BME280;43523;53.022;-1.178;2023-10-09T02:43:45;101250.50;;;12.03;100.00
57290;BME280;43523;53.022;-1.178;2023-10-09T02:44:47;101247.22;;;12.13;100.00
57290;BME280;43523;53.022;-1.178;2023-10-09T02:45:49;101234.53;;;12.39;100.00
57290;BME280;43523;53.022;-1.178;2023-10-09T02:46:51;101241.56;;;12.03;100.00
57290;BME280;43523;53.022;-1.178;2023-10-09T02:47:54;101248.00;;;11.98;100.00
57290;BME280;43523;53.022;-1.178;2023-10-09T02:48:56;101246.03;;;11.80;100.00
57290;BME280;43523;53.022;-1.178;2023-10-09T02:49:58;101249.49;;;11.77;100.00
57290;BME280;43523;53.022;-1.178;2023-10-09T02:51:01;101248.12;;;12.57;100.00
57290;BME280;43523;53.022;-1.178;2023-10-09T02:52:03;101250.74;;;12.39;100.00
57290;BME280;43523;53.022;-1.178;2023-10-09T02:53:05;101253.25;;;12.57;100.00
57290;BME280;43523;53.022;-1.178;2023-10-09T02:54:08;101256.45;;;12.19;100.00
57290;BME280;43523;53.022;-1.178;2023-10-09T02:55:11;101249.91;;;11.95;100.00
57290;BME280;43523;53.022;-1.178;2023-10-09T02:56:13;101249.42;;;12.10;100.00
57290;BME280;43523;53.022;-1.178;2023-10-09T02:57:15;101248.59;;;11.94;100.00
57290;BME280;43523;53.022;-1.178;2023-10-09T02:58:18;101241.79;;;12.23;100.00
57290;BME280;43523;53.022;-1.178;2023-10-09T02:59:20;101238.57;;;12.69;100.00
57290;BME280;43523;53.022;-1.178;2023-10-09T03:00:22;101233.66;;;12.64;100.00
57290;BME280;43523;53.022;-1.178;2023-10-09T03:01:24;101236.09;;;11.61;100.00
57290;BME280;43523;53.022;-1.178;2023-10-09T03:02:27;101236.85;;;11.90;100.00
57290;BME280;43523;53.022;-1.178;2023-10-09T03:03:30;101239.21;;;11.85;100.00
57290;BME280;43523;53.022;-1.178;2023-10-09T03:04:32;101238.91;;;12.53;100.00
57290;BME280;43523;53.022;-1.178;2023-10-09T03:05:35;101238.64;;;12.53;100.00
57290;BME280;43523;53.022;-1.178;2023-10-09T03:06:37;101240.19;;;12.56;100.00
57290;BME280;43523;53.022;-1.178;2023-10-09T03:07:39;101249.79;;;12.34;100.00
57290;BME280;43523;53.022;-1.178;2023-10-09T03:08:47;101251.94;;;12.93;100.00
57290;BME280;43523;53.022;-1.178;2023-10-09T03:09:49;101255.03;;;12.43;100.00
57290;BME280;43523;53.022;-1.178;2023-10-09T03:10:51;101255.56;;;12.47;100.00
57290;BME280;43523;53.022;-1.178;2023-10-09T03:11:55;101254.52;;;12.56;100.00
57290;BME280;43523;53.022;-1.178;2023-10-09T03:12:58;101252.50;;;12.17;100.00
57290;BME280;43523;53.022;-1.178;2023-10-09T03:14:00;101249.58;;;11.96;100.00
57290;BME280;43523;53.022;-1.178;2023-10-09T03:15:03;101243.65;;;12.37;100.00
57290;BME280;43523;53.022;-1.178;2023-10-09T03:16:05;101235.20;;;12.41;100.00
57290;BME280;43523;53.022;-1.178;2023-10-09T03:17:08;101233.57;;;11.86;100.00
57290;BME280;43523;53.022;-1.178;2023-10-09T03:18:10;101229.18;;;11.84;100.00
57290;BME280;43523;53.022;-1.178;2023-10-09T03:19:12;101220.40;;;12.03;100.00
57290;BME280;43523;53.022;-1.178;2023-10-09T03:20:15;101213.16;;;11.90;100.00
57290;BME280;43523;53.022;-1.178;2023-10-09T03:21:17;101209.45;;;11.57;100.00
57290;BME280;43523;53.022;-1.178;2023-10-09T03:22:20;101212.05;;;11.82;100.00
57290;BME280;43523;53.022;-1.178;2023-10-09T03:23:22;101212.75;;;11.62;100.00
57290;BME280;43523;53.022;-1.178;2023-10-09T03:24:25;101214.63;;;11.31;100.00
57290;BME280;43523;53.022;-1.178;2023-10-09T03:25:27;101220.93;;;11.17;100.00
57290;BME280;43523;53.022;-1.178;2023-10-09T03:26:30;101221.45;;;11.37;100.00
57290;BME280;43523;53.022;-1.178;2023-10-09T03:27:32;101226.85;;;11.55;100.00
57290;BME280;43523;53.022;-1.178;2023-10-09T03:28:35;101228.40;;;11.53;100.00
57290;BME280;43523;53.022;-1.178;2023-10-09T03:29:37;101229.66;;;11.23;100.00
57290;BME280;43523;53.022;-1.178;2023-10-09T03:30:40;101235.91;;;11.18;100.00
57290;BME280;43523;53.022;-1.178;2023-10-09T03:31:42;101232.68;;;11.19;100.00
57290;BME280;43523;53.022;-1.178;2023-10-09T03:32:45;101236.38;;;10.91;100.00
57290;BME280;43523;53.022;-1.178;2023-10-09T03:33:48;101243.05;;;11.00;100.00
57290;BME280;43523;53.022;-1.178;2023-10-09T03:34:50;101248.83;;;11.07;100.00
57290;BME280;43523;53.022;-1.178;2023-10-09T03:35:52;101252.63;;;11.04;100.00
57290;BME280;43523;53.022;-1.178;2023-10-09T03:36:54;101257.15;;;11.17;100.00
57290;BME280;43523;53.022;-1.178;2023-10-09T03:37:58;101258.70;;;10.93;100.00
57290;BME280;43523;53.022;-1.178;2023-10-09T03:38:59;101258.55;;;11.21;100.00
57290;BME280;43523;53.022;-1.178;2023-10-09T03:40:03;101254.96;;;11.27;100.00
57290;BME280;43523;53.022;-1.178;2023-10-09T03:41:06;101252.95;;;11.02;100.00
57290;BME280;43523;53.022;-1.178;2023-10-09T03:42:08;101253.99;;;10.87;100.00
57290;BME280;43523;53.022;-1.178;2023-10-09T03:43:11;101260.98;;;10.92;100.00
57290;BME280;43523;53.022;-1.178;2023-10-09T03:44:13;101265.39;;;10.76;100.00
57290;BME280;43523;53.022;-1.178;2023-10-09T03:45:16;101268.23;;;10.84;100.00
57290;BME280;43523;53.022;-1.178;2023-10-09T03:46:18;101275.77;;;10.83;100.00
57290;BME280;43523;53.022;-1.178;2023-10-09T03:47:20;101272.08;;;11.11;100.00
57290;BME280;43523;53.022;-1.178;2023-10-09T03:48:23;101271.20;;;11.12;100.00
57290;BME280;43523;53.022;-1.178;2023-10-09T03:49:25;101267.28;;;11.81;100.00
57290;BME280;43523;53.022;-1.178;2023-10-09T03:50:28;101264.21;;;11.43;100.00
57290;BME280;43523;53.022;-1.178;2023-10-09T03:51:32;101263.27;;;11.51;100.00
57290;BME280;43523;53.022;-1.178;2023-10-09T03:52:34;101257.17;;;11.94;100.00
57290;BME280;43523;53.022;-1.178;2023-10-09T03:53:38;101257.62;;;11.61;100.00
57290;BME280;43523;53.022;-1.178;2023-10-09T03:54:40;101259.84;;;11.11;100.00
57290;BME280;43523;53.022;-1.178;2023-10-09T03:55:43;101256.33;;;11.79;100.00
57290;BME280;43523;53.022;-1.178;2023-10-09T03:56:46;101262.52;;;11.03;100.00
57290;BME280;43523;53.022;-1.178;2023-10-09T03:57:49;101267.22;;;10.87;100.00
57290;BME280;43523;53.022;-1.178;2023-10-09T03:58:51;101270.91;;;10.75;100.00
57290;BME280;43523;53.022;-1.178;2023-10-09T03:59:54;101268.11;;;11.06;100.00
57290;BME280;43523;53.022;-1.178;2023-10-09T04:00:56;101268.75;;;10.50;100.00
57290;BME280;43523;53.022;-1.178;2023-10-09T04:01:59;101268.46;;;10.56;100.00
57290;BME280;43523;53.022;-1.178;2023-10-09T04:03:01;101266.42;;;10.88;100.00
57290;BME280;43523;53.022;-1.178;2023-10-09T04:04:05;101258.27;;;11.45;100.00
57290;BME280;43523;53.022;-1.178;2023-10-09T04:05:08;101260.13;;;11.66;100.00
57290;BME280;43523;53.022;-1.178;2023-10-09T04:06:11;101260.92;;;11.49;100.00
57290;BME280;43523;53.022;-1.178;2023-10-09T04:07:13;101259.37;;;12.00;100.00
57290;BME280;43523;53.022;-1.178;2023-10-09T04:08:15;101263.42;;;11.54;100.00
57290;BME280;43523;53.022;-1.178;2023-10-09T04:09:18;101260.88;;;11.26;100.00
57290;BME280;43523;53.022;-1.178;2023-10-09T04:10:21;101257.10;;;11.78;100.00
57290;BME280;43523;53.022;-1.178;2023-10-09T04:11:23;101256.44;;;12.32;100.00
57290;BME280;43523;53.022;-1.178;2023-10-09T04:12:26;101258.88;;;12.76;100.00
57290;BME280;43523;53.022;-1.178;2023-10-09T04:13:28;101261.28;;;12.85;100.00
57290;BME280;43523;53.022;-1.178;2023-10-09T04:14:30;101264.31;;;12.89;100.00
57290;BME280;43523;53.022;-1.178;2023-10-09T04:15:33;101264.70;;;12.53;100.00
57290;BME280;43523;53.022;-1.178;2023-10-09T04:16:35;101264.43;;;12.01;100.00
57290;BME280;43523;53.022;-1.178;2023-10-09T04:17:37;101266.26;;;11.26;100.00
57290;BME280;43523;53.022;-1.178;2023-10-09T04:18:40;101259.19;;;11.99;100.00
57290;BME280;43523;53.022;-1.178;2023-10-09T04:19:44;101256.03;;;11.67;100.00
57290;BME280;43523;53.022;-1.178;2023-10-09T04:20:46;101252.35;;;11.69;100.00
57290;BME280;43523;53.022;-1.178;2023-10-09T04:21:49;101243.36;;;12.25;100.00
57290;BME280;43523;53.022;-1.178;2023-10-09T04:22:51;101237.33;;;12.52;100.00
57290;BME280;43523;53.022;-1.178;2023-10-09T04:23:54;101233.40;;;12.59;100.00
57290;BME280;43523;53.022;-1.178;2023-10-09T04:24:56;101233.89;;;12.52;100.00
57290;BME280;43523;53.022;-1.178;2023-10-09T04:25:58;101239.74;;;12.77;100.00
57290;BME280;43523;53.022;-1.178;2023-10-09T04:27:01;101249.96;;;12.95;100.00
57290;BME280;43523;53.022;-1.178;2023-10-09T04:28:03;101254.22;;;12.19;100.00
57290;BME280;43523;53.022;-1.178;2023-10-09T04:29:06;101262.66;;;12.38;100.00
57290;BME280;43523;53.022;-1.178;2023-10-09T04:30:09;101266.35;;;12.62;100.00
57290;BME280;43523;53.022;-1.178;2023-10-09T04:31:11;101268.45;;;12.08;100.00
57290;BME280;43523;53.022;-1.178;2023-10-09T04:32:14;101268.49;;;11.73;100.00
57290;BME280;43523;53.022;-1.178;2023-10-09T04:33:16;101266.37;;;12.52;100.00
57290;BME280;43523;53.022;-1.178;2023-10-09T04:34:19;101268.22;;;11.61;100.00
57290;BME280;43523;53.022;-1.178;2023-10-09T04:35:21;101269.15;;;11.94;100.00
57290;BME280;43523;53.022;-1.178;2023-10-09T04:36:23;101269.34;;;11.14;100.00
57290;BME280;43523;53.022;-1.178;2023-10-09T04:37:26;101272.34;;;11.08;100.00
57290;BME280;43523;53.022;-1.178;2023-10-09T04:38:28;101272.47;;;11.06;100.00
57290;BME280;43523;53.022;-1.178;2023-10-09T04:39:32;101272.35;;;11.01;100.00
57290;BME280;43523;53.022;-1.178;2023-10-09T04:40:34;101278.67;;;10.64;100.00
57290;BME280;43523;53.022;-1.178;2023-10-09T04:41:36;101276.77;;;10.55;100.00
57290;BME280;43523;53.022;-1.178;2023-10-09T04:42:39;101275.33;;;10.78;100.00
57290;BME280;43523;53.022;-1.178;2023-10-09T04:43:41;101275.04;;;10.57;100.00
57290;BME280;43523;53.022;-1.178;2023-10-09T04:44:44;101269.07;;;10.90;100.00
57290;BME280;43523;53.022;-1.178;2023-10-09T04:45:47;101260.42;;;10.82;100.00
57290;BME280;43523;53.022;-1.178;2023-10-09T04:46:50;101260.10;;;10.95;100.00
57290;BME280;43523;53.022;-1.178;2023-10-09T04:47:53;101266.33;;;11.03;100.00
57290;BME280;43523;53.022;-1.178;2023-10-09T04:48:55;101266.51;;;10.73;100.00
57290;BME280;43523;53.022;-1.178;2023-10-09T04:49:58;101261.44;;;10.86;100.00
57290;BME280;43523;53.022;-1.178;2023-10-09T04:51:00;101265.19;;;11.50;100.00
57290;BME280;43523;53.022;-1.178;2023-10-09T04:52:04;101270.85;;;11.37;100.00
57290;BME280;43523;53.022;-1.178;2023-10-09T04:53:06;101278.30;;;11.34;100.00
57290;BME280;43523;53.022;-1.178;2023-10-09T04:54:09;101278.90;;;12.01;100.00
57290;BME280;43523;53.022;-1.178;2023-10-09T04:55:11;101279.82;;;11.79;100.00
57290;BME280;43523;53.022;-1.178;2023-10-09T04:56:14;101277.93;;;11.53;100.00
57290;BME280;43523;53.022;-1.178;2023-10-09T04:57:16;101273.41;;;12.46;100.00
57290;BME280;43523;53.022;-1.178;2023-10-09T04:58:18;101272.32;;;11.91;100.00
57290;BME280;43523;53.022;-1.178;2023-10-09T04:59:20;101267.10;;;12.07;100.00
57290;BME280;43523;53.022;-1.178;2023-10-09T05:00:23;101268.20;;;11.75;100.00
57290;BME280;43523;53.022;-1.178;2023-10-09T05:01:25;101270.23;;;12.13;100.00
57290;BME280;43523;53.022;-1.178;2023-10-09T05:02:27;101263.08;;;11.72;100.00
57290;BME280;43523;53.022;-1.178;2023-10-09T05:03:30;101256.24;;;11.88;100.00
57290;BME280;43523;53.022;-1.178;2023-10-09T05:04:32;101255.55;;;11.63;100.00
57290;BME280;43523;53.022;-1.178;2023-10-09T05:05:35;101259.31;;;11.45;100.00
57290;BME280;43523;53.022;-1.178;2023-10-09T05:06:37;101257.18;;;11.77;100.00
57290;BME280;43523;53.022;-1.178;2023-10-09T05:07:40;101261.04;;;11.77;100.00
57290;BME280;43523;53.022;-1.178;2023-10-09T05:08:42;101270.02;;;12.03;100.00
57290;BME280;43523;53.022;-1.178;2023-10-09T05:09:45;101271.59;;;12.36;100.00
57290;BME280;43523;53.022;-1.178;2023-10-09T05:10:47;101273.69;;;11.63;100.00
57290;BME280;43523;53.022;-1.178;2023-10-09T05:11:50;101277.04;;;12.08;100.00
57290;BME280;43523;53.022;-1.178;2023-10-09T05:12:52;101282.07;;;11.89;100.00
57290;BME280;43523;53.022;-1.178;2023-10-09T05:13:54;101279.41;;;12.30;100.00
57290;BME280;43523;53.022;-1.178;2023-10-09T05:14:57;101281.23;;;11.48;100.00
57290;BME280;43523;53.022;-1.178;2023-10-09T05:16:00;101291.61;;;11.08;100.00
57290;BME280;43523;53.022;-1.178;2023-10-09T05:17:02;101294.30;;;10.62;100.00
57290;BME280;43523;53.022;-1.178;2023-10-09T05:18:04;101287.02;;;11.28;100.00
57290;BME280;43523;53.022;-1.178;2023-10-09T05:19:06;101288.13;;;10.69;100.00
57290;BME280;43523;53.022;-1.178;2023-10-09T05:20:09;101292.30;;;10.42;100.00